Time;durP1;ratioP1;P1;durP2;ratioP2;P2;SDS_P1;SDS_P2;PMS_P1;PMS_P2;Temp;Humidity;BMP_temperature;BMP_pressure;BME280_temperature;BME280_humidity;BME280_pressure;Samples;Min_cycle;Max_cycle;Signal;HPM_P1;HPM_P2
2022/02/11 00:01:23;;;;;;;1.58;0.40;;;;;;;19.63;45.78;100579.09;5035310;28;20112;-65
2022/02/11 00:08:54;;;;;;;0.23;0.10;;;;;;;19.54;45.27;100580.22;5035477;28;20025;-67
2022/02/11 00:11:26;;;;;;;0.68;0.60;;;;;;;19.53;46.28;100587.53;5034994;28;20032;-66
2022/02/11 00:13:51;;;;;;;0.57;0.30;;;;;;;19.53;45.73;100590.25;5034779;28;20449;-67
2022/02/11 00:16:17;;;;;;;0.25;0.10;;;;;;;19.49;45.95;100594.38;5034919;28;20053;-66
2022/02/11 00:18:42;;;;;;;1.65;0.43;;;;;;;19.44;45.90;100601.41;5034486;28;20025;-67
2022/02/11 00:21:07;;;;;;;1.33;0.30;;;;;;;19.45;45.39;100592.19;5034910;28;20105;-66
2022/02/11 00:23:36;;;;;;;0.60;0.10;;;;;;;19.44;46.19;100596.81;5034783;28;20032;-66
2022/02/11 00:26:03;;;;;;;2.17;0.38;;;;;;;19.42;45.71;100598.88;5034773;28;20032;-68
2022/02/11 00:29:20;;;;;;;0.32;0.17;;;;;;;19.35;45.50;100603.38;5042511;28;20074;-66
2022/02/11 00:31:41;;;;;;;1.52;0.40;;;;;;;19.36;45.71;100607.78;5054451;28;20114;-67
2022/02/11 00:34:02;;;;;;;0.65;0.32;;;;;;;19.33;45.81;100618.22;5054341;28;20059;-66
2022/02/11 00:36:34;;;;;;;1.73;0.45;;;;;;;19.32;45.75;100611.91;5054365;28;20021;-67
2022/02/11 01:05:48;;;;;;;0.65;0.20;;;;;;;19.16;45.73;100642.03;4991937;28;20034;-66
2022/02/11 01:08:13;;;;;;;1.58;0.50;;;;;;;19.16;45.92;100640.16;4992282;28;20048;-66
2022/02/11 01:10:39;;;;;;;1.30;0.73;;;;;;;19.14;45.50;100644.06;4975415;28;20027;-66
2022/02/11 01:13:04;;;;;;;1.58;0.30;;;;;;;19.12;45.86;100641.50;4992019;28;20030;-66
2022/02/11 01:15:32;;;;;;;1.67;0.30;;;;;;;19.11;45.58;100636.25;4991932;28;20470;-67
2022/02/11 01:18:01;;;;;;;0.85;0.20;;;;;;;19.08;46.03;100642.91;4989524;28;20034;-66
2022/02/11 01:21:15;;;;;;;0.30;0.20;;;;;;;19.08;45.41;100644.78;4972544;28;20062;-66
2022/02/11 01:36:32;;;;;;;0.50;0.20;;;;;;;19.62;49.07;100647.47;4972577;28;20034;-67
2022/02/11 01:57:09;;;;;;;;;;;;;;;20.09;57.79;100658.94;5011320;28;20022;-66
2022/02/11 02:03:11;;;;;;;0.08;0.08;;;;;;;20.16;59.26;100660.94;4991332;28;20418;-67
2022/02/11 02:16:43;;;;;;;0.98;0.25;;;;;;;20.41;60.23;100681.47;5051229;28;20044;-66
2022/02/11 02:19:36;;;;;;;1.55;0.20;;;;;;;20.44;59.58;100686.53;5052062;28;20040;-66
2022/02/11 02:27:28;;;;;;;0.57;0.40;;;;;;;20.60;59.17;100702.72;5032828;28;20292;-66
2022/02/11 02:38:22;;;;;;;1.40;0.30;;;;;;;20.72;58.16;100695.75;5012986;28;20474;-66
2022/02/11 02:58:25;;;;;;;0.30;0.10;;;;;;;20.89;55.88;100703.75;4993857;28;20428;-67
2022/02/11 03:17:27;;;;;;;0.68;0.20;;;;;;;20.94;55.25;100709.47;5013847;28;20040;-66
2022/02/11 04:22:12;;;;;;;0.77;0.15;;;;;;;21.13;53.34;100747.13;5053358;28;20039;-67
2022/02/11 04:25:37;;;;;;;1.58;0.22;;;;;;;21.11;53.10;100741.00;5053351;28;20040;-67
2022/02/11 04:28:28;;;;;;;1.85;0.40;;;;;;;21.13;53.15;100741.66;5050377;28;20032;-66
2022/02/11 04:54:59;;;;;;;2.63;0.40;;;;;;;21.18;53.22;100793.03;4997671;28;1035927;-66
2022/02/11 05:00:11;;;;;;;1.85;0.30;;;;;;;21.29;52.42;100809.81;5054127;28;20055;-66
2022/02/11 05:02:38;;;;;;;0.55;0.30;;;;;;;22.38;50.48;100791.38;5053600;28;20028;-65
2022/02/11 05:05:06;;;;;;;0.60;0.20;;;;;;;22.69;50.01;100788.22;5053793;28;20029;-67
2022/02/11 05:07:32;;;;;;;1.08;0.20;;;;;;;22.91;49.69;100786.25;5053731;28;20025;-66
2022/02/11 05:09:57;;;;;;;0.80;0.20;;;;;;;23.05;49.45;100796.25;5053854;28;20024;-66
2022/02/11 05:12:23;;;;;;;0.60;0.30;;;;;;;23.17;48.85;100791.00;5053796;28;20052;-67
2022/02/11 05:14:48;;;;;;;2.50;0.68;;;;;;;23.26;49.33;100798.03;5053352;28;20025;-66
2022/02/11 05:17:13;;;;;;;0.60;0.30;;;;;;;23.37;48.57;100802.94;5053767;28;20287;-67
2022/02/11 05:19:38;;;;;;;1.05;0.20;;;;;;;23.45;48.62;100801.88;5053422;28;20408;-66
2022/02/11 05:22:04;;;;;;;1.60;0.22;;;;;;;23.51;49.40;100802.97;5052271;28;20025;-66
2022/02/11 05:24:29;;;;;;;0.57;0.30;;;;;;;23.57;48.94;100803.03;5051301;28;20416;-66
2022/02/11 05:26:54;;;;;;;1.85;0.45;;;;;;;23.62;49.26;100810.63;5051344;28;20021;-66
2022/02/11 05:29:19;;;;;;;1.30;0.40;;;;;;;23.68;49.44;100809.78;5033587;28;20025;-66
2022/02/11 05:31:45;;;;;;;2.30;0.30;;;;;;;23.20;49.54;100814.47;5033307;28;20025;-66
2022/02/11 05:34:10;;;;;;;0.75;0.22;;;;;;;22.60;49.36;100821.44;5033507;28;20449;-66
2022/02/11 05:36:35;;;;;;;1.05;0.30;;;;;;;22.38;47.25;100829.72;5033080;28;20048;-67
2022/02/11 05:39:01;;;;;;;0.68;0.20;;;;;;;22.26;46.68;100830.44;5033295;28;20059;-66
2022/02/11 05:41:26;;;;;;;0.43;0.10;;;;;;;22.23;44.54;100833.59;5033339;28;20021;-67
2022/02/11 05:43:51;;;;;;;0.80;0.10;;;;;;;22.20;43.52;100832.09;5032990;28;20025;-66
2022/02/11 05:46:17;;;;;;;0.40;0.20;;;;;;;22.16;42.67;100831.63;5033273;28;20047;-66
2022/02/11 05:48:43;;;;;;;0.98;0.38;;;;;;;22.10;42.09;100831.56;5032704;28;20041;-67
2022/02/11 05:51:08;;;;;;;0.75;0.20;;;;;;;22.19;42.02;100831.25;5033165;28;20388;-66
2022/02/11 05:53:34;;;;;;;1.23;0.40;;;;;;;22.19;42.25;100838.63;5032736;28;20038;-66
2022/02/11 05:56:00;;;;;;;0.95;0.10;;;;;;;22.13;41.63;100847.59;5033040;28;20040;-68
2022/02/11 05:58:25;;;;;;;0.90;0.10;;;;;;;22.21;42.28;100840.13;5048623;28;20020;-66
2022/02/11 06:00:50;;;;;;;0.65;0.30;;;;;;;22.24;41.80;100854.44;5052827;28;20025;-67
2022/02/11 06:03:16;;;;;;;1.42;0.30;;;;;;;22.18;41.91;100842.41;5052630;28;20078;-67
2022/02/11 06:05:41;;;;;;;2.30;0.20;;;;;;;22.22;41.21;100840.97;5052599;28;20402;-67
2022/02/11 06:08:06;;;;;;;1.23;0.45;;;;;;;22.31;41.12;100839.75;5053105;28;20016;-66
2022/02/11 06:10:31;;;;;;;0.77;0.20;;;;;;;22.26;41.30;100835.94;5052464;28;20457;-67
2022/02/11 06:12:57;;;;;;;0.30;0.30;;;;;;;22.24;40.87;100838.88;5052555;28;20029;-67
2022/02/11 06:15:23;;;;;;;0.68;0.20;;;;;;;22.27;40.93;100849.41;5052649;28;20031;-67
2022/02/11 06:17:48;;;;;;;1.20;0.20;;;;;;;22.23;40.85;100858.22;5052332;28;20073;-67
2022/02/11 06:20:14;;;;;;;0.85;0.20;;;;;;;22.30;40.10;100867.34;5052602;28;20107;-68
2022/02/11 06:22:39;;;;;;;1.00;0.30;;;;;;;22.24;40.39;100870.88;5049011;28;20080;-67
2022/02/11 06:25:05;;;;;;;0.52;0.20;;;;;;;22.27;39.60;100871.31;5032600;28;20022;-66
2022/02/11 06:27:30;;;;;;;0.75;0.15;;;;;;;22.21;40.81;100872.97;5040567;28;20108;-67
2022/02/11 06:29:55;;;;;;;0.50;0.17;;;;;;;22.23;39.80;100872.78;5052457;28;20024;-67
2022/02/11 06:32:21;;;;;;;1.60;0.13;;;;;;;22.18;40.32;100886.22;5052490;28;20460;-66
2022/02/11 06:34:46;;;;;;;0.47;0.10;;;;;;;22.20;39.87;100881.38;5050580;28;20031;-67
2022/02/11 06:37:11;;;;;;;0.22;0.10;;;;;;;22.17;39.68;100889.97;5052677;28;20115;-67
2022/02/11 06:39:37;;;;;;;1.15;0.52;;;;;;;22.25;39.66;100895.31;5052333;28;20048;-67
2022/02/11 06:42:02;;;;;;;1.08;0.32;;;;;;;22.23;40.40;100891.09;5052317;28;20028;-67
2022/02/11 06:44:28;;;;;;;0.32;0.10;;;;;;;22.19;40.34;100893.38;5052107;28;20028;-67
2022/02/11 06:46:53;;;;;;;1.25;0.40;;;;;;;22.24;40.04;100901.84;5051968;28;20108;-67
2022/02/11 06:49:18;;;;;;;0.88;0.13;;;;;;;22.23;40.30;100897.41;5050989;28;20151;-67
2022/02/11 06:51:44;;;;;;;0.47;0.20;;;;;;;22.32;40.77;100898.97;5050693;28;20087;-67
2022/02/11 06:54:09;;;;;;;1.58;0.40;;;;;;;22.35;40.35;100905.97;5052009;28;20045;-67
2022/02/11 06:56:34;;;;;;;1.27;0.45;;;;;;;22.37;40.19;100901.97;5050904;28;20025;-66
2022/02/11 06:58:59;;;;;;;1.85;0.40;;;;;;;22.33;40.52;100908.03;5032206;28;20388;-67
2022/02/11 07:01:25;;;;;;;1.08;0.32;;;;;;;22.34;40.14;100909.72;5030883;28;20027;-67
2022/02/11 07:03:50;;;;;;;1.17;0.15;;;;;;;22.33;40.73;100903.41;5031912;28;20040;-67
2022/02/11 07:06:16;;;;;;;0.32;0.30;;;;;;;22.32;39.90;100912.66;5032192;28;20029;-67
2022/02/11 07:08:41;;;;;;;0.28;0.20;;;;;;;22.37;40.09;100920.31;5031787;28;20025;-67
2022/02/11 07:11:07;;;;;;;0.95;0.20;;;;;;;22.39;40.33;100918.22;5032087;28;20033;-66
2022/02/11 07:13:32;;;;;;;0.47;0.30;;;;;;;22.33;41.60;100930.78;5031952;28;20025;-67
2022/02/11 07:15:57;;;;;;;0.55;0.15;;;;;;;22.40;40.08;100923.50;5032002;28;20024;-66
2022/02/11 07:18:23;;;;;;;0.73;0.20;;;;;;;22.34;40.82;100932.50;5032049;28;20025;-67
2022/02/11 07:20:49;;;;;;;0.85;0.30;;;;;;;22.40;40.29;100934.44;5031662;28;20930;-67
2022/02/11 07:23:15;;;;;;;0.30;0.13;;;;;;;22.36;40.03;100941.38;5031950;28;20503;-66
2022/02/11 07:25:41;;;;;;;1.08;0.20;;;;;;;22.38;40.45;100942.03;5030959;28;20045;-67
2022/02/11 07:28:06;;;;;;;0.95;0.10;;;;;;;22.39;40.06;100949.19;5028919;28;20428;-66
2022/02/11 07:30:32;;;;;;;0.55;0.20;;;;;;;22.42;40.50;100953.44;5030006;28;20017;-66
2022/02/11 07:32:57;;;;;;;0.85;0.13;;;;;;;22.35;40.45;100966.22;5029826;28;20116;-67
2022/02/11 07:35:24;;;;;;;1.83;0.30;;;;;;;22.34;40.29;100964.50;5029971;28;20036;-66
2022/02/11 07:37:50;;;;;;;1.88;0.30;;;;;;;22.40;40.39;100970.06;5029732;28;20029;-66
2022/02/11 07:40:16;;;;;;;0.40;0.08;;;;;;;22.42;40.29;100976.19;5028334;28;20018;-67
2022/02/11 07:42:42;;;;;;;0.52;0.20;;;;;;;22.37;40.35;100970.47;5032050;28;20079;-66
2022/02/11 07:45:09;;;;;;;0.22;0.10;;;;;;;22.38;40.81;100977.63;5036923;28;20037;-66
2022/02/11 07:47:34;;;;;;;0.80;0.20;;;;;;;22.41;40.51;100982.72;5032569;28;20030;-67
2022/02/11 07:50:00;;;;;;;0.90;0.20;;;;;;;22.44;40.37;100987.78;5034177;28;20032;-67
2022/02/11 07:52:25;;;;;;;1.02;0.25;;;;;;;22.47;39.86;100995.63;5034542;28;20056;-67
2022/02/11 07:54:50;;;;;;;1.17;0.40;;;;;;;22.44;40.29;101000.66;5034623;28;20046;-68
2022/02/11 07:57:17;;;;;;;0.57;0.20;;;;;;;22.39;40.56;101001.25;5043817;28;20036;-66
2022/02/11 07:59:42;;;;;;;1.85;0.38;;;;;;;22.45;39.83;101007.81;5054678;28;20025;-67
2022/02/11 08:02:07;;;;;;;0.85;0.40;;;;;;;22.39;40.30;101008.59;5050379;28;20112;-66
2022/02/11 08:04:33;;;;;;;1.83;0.40;;;;;;;22.44;39.75;101014.34;5034267;28;20025;-66
2022/02/11 08:06:59;;;;;;;1.45;0.50;;;;;;;22.39;40.28;101031.38;5033892;28;20025;-68
2022/02/11 08:09:24;;;;;;;1.58;0.35;;;;;;;22.42;39.78;101030.97;5034143;28;20030;-67
2022/02/11 08:11:49;;;;;;;2.13;0.65;;;;;;;22.31;41.25;101034.22;5041333;28;20033;-66
2022/02/11 08:14:15;;;;;;;1.02;0.30;;;;;;;22.39;40.38;101039.59;5054908;28;20017;-67
2022/02/11 08:16:40;;;;;;;0.88;0.30;;;;;;;22.46;40.30;101040.50;5054481;28;20028;-67
2022/02/11 08:19:06;;;;;;;2.38;0.60;;;;;;;22.45;40.08;101049.75;5054791;28;20025;-67
2022/02/11 08:21:33;;;;;;;0.68;0.40;;;;;;;22.43;40.34;101046.38;5036401;28;20025;-67
2022/02/11 08:23:59;;;;;;;1.27;0.40;;;;;;;22.43;39.68;101048.25;5034713;28;20025;-68
2022/02/11 08:26:24;;;;;;;1.15;0.50;;;;;;;22.42;40.42;101049.31;5034742;28;20033;-67
2022/02/11 08:28:49;;;;;;;1.58;0.50;;;;;;;22.40;40.21;101052.25;5034329;28;20109;-68
2022/02/11 08:31:15;;;;;;;1.60;0.43;;;;;;;22.41;40.77;101051.19;5034706;28;20465;-67
2022/02/11 08:33:40;;;;;;;1.58;0.63;;;;;;;22.45;39.59;101047.03;5034357;28;20021;-66
2022/02/11 08:36:05;;;;;;;1.85;0.35;;;;;;;22.49;39.81;101044.72;5034559;28;20037;-68
2022/02/11 08:38:31;;;;;;;0.93;0.20;;;;;;;22.48;40.54;101065.81;5034282;28;20030;-67
2022/02/11 08:40:56;;;;;;;0.93;0.30;;;;;;;22.46;39.58;101067.03;5034347;28;20029;-67
2022/02/11 08:43:21;;;;;;;0.90;0.40;;;;;;;22.45;39.95;101071.69;5034403;28;20025;-68
2022/02/11 08:45:47;;;;;;;0.55;0.43;;;;;;;22.50;39.61;101071.09;5034105;28;20017;-67
2022/02/11 08:48:14;;;;;;;1.70;0.40;;;;;;;22.47;39.58;101063.25;5034423;28;20029;-67
2022/02/11 08:50:41;;;;;;;0.65;0.40;;;;;;;22.43;39.57;101060.06;5043868;28;20491;-67
2022/02/11 08:53:08;;;;;;;1.98;0.30;;;;;;;22.41;39.61;101064.88;5054064;28;20088;-67
2022/02/11 08:55:34;;;;;;;0.22;0.20;;;;;;;22.50;40.09;101069.19;5053952;28;20032;-67
2022/02/11 08:57:59;;;;;;;0.65;0.20;;;;;;;22.45;39.56;101071.69;5053377;28;20036;-68
2022/02/11 09:00:26;;;;;;;1.25;0.40;;;;;;;22.45;40.32;101071.69;5037779;28;20026;-66
2022/02/11 09:02:52;;;;;;;0.70;0.20;;;;;;;22.46;39.44;101067.88;5032415;28;20033;-68
2022/02/11 09:05:21;;;;;;;0.90;0.40;;;;;;;22.46;39.54;101078.00;5031682;28;20374;-68
2022/02/11 09:07:47;;;;;;;0.30;0.30;;;;;;;22.51;39.42;101079.16;5029426;28;20029;-63
2022/02/11 09:10:12;;;;;;;1.48;0.32;;;;;;;22.50;39.16;101084.78;5014084;28;20033;-64
2022/02/11 09:12:37;;;;;;;0.80;0.30;;;;;;;22.45;39.45;101093.59;5013699;28;20024;-64
2022/02/11 09:15:03;;;;;;;0.32;0.20;;;;;;;22.42;39.90;101106.84;5027711;28;20365;-64
2022/02/11 09:17:28;;;;;;;0.52;0.22;;;;;;;22.43;40.14;101106.63;5029357;28;20021;-64
2022/02/11 09:19:53;;;;;;;1.50;0.50;;;;;;;22.44;39.64;101113.81;5026598;28;20047;-64
2022/02/11 09:22:19;;;;;;;0.88;0.20;;;;;;;22.42;39.83;101115.91;5031427;28;20029;-64
2022/02/11 09:24:44;;;;;;;0.77;0.45;;;;;;;22.50;39.53;101129.47;5032418;28;20045;-65
2022/02/11 09:27:10;;;;;;;1.27;0.20;;;;;;;22.46;39.20;101133.66;5032191;28;20024;-64
2022/02/11 09:29:35;;;;;;;1.42;0.20;;;;;;;22.43;39.93;101130.44;5035308;28;20036;-64
2022/02/11 09:32:01;;;;;;;0.28;0.20;;;;;;;22.45;39.55;101139.31;5033781;28;20110;-64
2022/02/11 09:34:26;;;;;;;0.55;0.10;;;;;;;22.48;39.66;101137.03;5034069;28;20373;-64
2022/02/11 09:36:51;;;;;;;0.75;0.30;;;;;;;22.40;39.67;101142.63;5053550;28;20021;-64
2022/02/11 09:39:17;;;;;;;1.35;0.40;;;;;;;22.48;39.49;101142.50;5045077;28;20396;-64
2022/02/11 09:41:43;;;;;;;0.90;0.20;;;;;;;22.44;39.03;101141.22;5030259;28;20481;-63
2022/02/11 09:44:09;;;;;;;0.93;0.30;;;;;;;22.43;39.45;101147.72;5033193;28;20029;-64
2022/02/11 09:46:37;;;;;;;1.05;0.20;;;;;;;22.47;39.06;101149.03;5032877;28;20071;-64
2022/02/11 09:49:04;;;;;;;2.25;0.22;;;;;;;22.50;38.69;101150.53;5033769;28;20021;-63
2022/02/11 09:51:30;;;;;;;1.17;0.30;;;;;;;22.46;39.17;101150.09;5031934;28;20491;-63
2022/02/11 09:53:55;;;;;;;2.05;0.30;;;;;;;22.47;39.69;101140.81;5032894;28;20065;-64
2022/02/11 09:56:20;;;;;;;0.40;0.28;;;;;;;22.50;38.97;101145.06;5032013;28;20124;-64
2022/02/11 09:58:51;;;;;;;1.00;0.20;;;;;;;22.50;39.74;101151.38;5031235;28;20105;-64
2022/02/11 10:01:21;;;;;;;1.00;0.47;;;;;;;22.47;39.13;101157.25;5029315;28;20117;-64
2022/02/11 10:04:06;;;;;;;1.42;0.20;;;;;;;22.50;39.60;101165.09;5028262;28;20100;-65
2022/02/11 10:06:31;;;;;;;1.05;0.20;;;;;;;22.51;39.10;101171.44;5031732;28;20039;-64
2022/02/11 10:08:57;;;;;;;0.63;0.20;;;;;;;22.46;39.04;101171.16;5030731;28;20021;-64
2022/02/11 10:11:22;;;;;;;0.95;0.10;;;;;;;22.46;39.26;101182.97;5030292;28;20033;-65
2022/02/11 10:13:47;;;;;;;0.50;0.30;;;;;;;22.47;39.66;101183.81;5031280;28;20465;-64
2022/02/11 10:16:14;;;;;;;0.52;0.22;;;;;;;22.45;39.24;101189.47;5032923;28;20079;-64
2022/02/11 10:18:46;;;;;;;0.50;0.20;;;;;;;22.44;39.33;101190.53;5031166;28;20021;-64
2022/02/11 10:21:15;;;;;;;2.88;0.40;;;;;;;22.45;39.80;101197.69;5031112;28;20509;-63
2022/02/11 10:23:43;;;;;;;1.45;0.28;;;;;;;22.47;38.91;101205.72;5028838;28;20034;-64
2022/02/11 10:26:16;;;;;;;0.55;0.17;;;;;;;22.52;38.77;101215.09;5028393;28;20027;-64
2022/02/11 10:28:52;;;;;;;1.65;0.40;;;;;;;22.51;39.02;101213.41;5032380;28;20025;-64
2022/02/11 10:31:20;;;;;;;1.25;0.50;;;;;;;22.44;39.53;101212.44;5041227;28;20504;-63
2022/02/11 10:34:03;;;;;;;0.80;0.25;;;;;;;22.48;39.34;101221.13;5032578;28;20021;-65
2022/02/11 10:36:38;;;;;;;1.15;0.30;;;;;;;22.48;39.20;101219.22;5030272;28;20057;-64
2022/02/11 10:39:17;;;;;;;0.88;0.30;;;;;;;22.48;39.30;101227.44;5032318;28;20373;-64
2022/02/11 10:41:54;;;;;;;0.50;0.20;;;;;;;22.46;39.72;101232.28;5030073;28;20104;-64
2022/02/11 10:44:25;;;;;;;1.95;0.90;;;;;;;22.43;39.29;101237.28;5032445;28;20071;-64
2022/02/11 10:46:54;;;;;;;0.88;0.15;;;;;;;22.44;38.65;101238.97;5030600;28;20334;-64
2022/02/11 10:49:32;;;;;;;0.68;0.25;;;;;;;22.48;39.42;101245.78;5030105;28;20063;-64
2022/02/11 10:52:08;;;;;;;0.70;0.25;;;;;;;22.46;38.99;101251.44;5030345;28;20029;-63
2022/02/11 10:54:34;;;;;;;0.65;0.20;;;;;;;22.48;39.25;101252.09;5047788;28;20087;-64
2022/02/11 10:57:02;;;;;;;1.00;0.25;;;;;;;22.46;38.91;101254.19;5050510;28;20037;-64
2022/02/11 10:59:28;;;;;;;1.20;0.20;;;;;;;22.47;38.89;101261.38;5047204;28;20067;-64
2022/02/11 11:01:55;;;;;;;0.60;0.25;;;;;;;22.40;39.63;101257.69;5027994;28;20416;-64
2022/02/11 11:04:21;;;;;;;0.65;0.10;;;;;;;22.40;39.71;101257.69;5027243;28;20500;-64
2022/02/11 11:06:47;;;;;;;2.60;0.30;;;;;;;22.43;39.06;101257.31;5038488;28;20029;-63
2022/02/11 11:09:15;;;;;;;0.65;0.20;;;;;;;22.47;39.27;101258.63;5052147;28;20027;-64
2022/02/11 11:11:43;;;;;;;0.60;0.10;;;;;;;22.44;38.82;101267.22;5037700;28;20385;-64
2022/02/11 11:14:12;;;;;;;0.22;0.10;;;;;;;22.46;39.09;101272.50;5027440;28;20017;-64
2022/02/11 11:16:39;;;;;;;0.40;0.10;;;;;;;22.46;38.14;101273.38;5031116;28;20445;-65
2022/02/11 11:19:04;;;;;;;0.88;0.20;;;;;;;22.51;38.23;101264.59;5031197;28;20029;-64
2022/02/11 11:21:31;;;;;;;1.50;0.10;;;;;;;22.51;38.98;101270.94;5031448;28;20039;-64
2022/02/11 11:23:57;;;;;;;1.50;0.20;;;;;;;22.43;38.74;101265.53;5035580;28;20022;-65
2022/02/11 11:26:45;;;;;;;1.38;0.40;;;;;;;22.41;38.25;101267.59;5035405;28;20021;-64
2022/02/11 11:29:18;;;;;;;0.52;0.20;;;;;;;22.41;38.63;101264.03;5034097;28;20440;-65
2022/02/11 11:31:56;;;;;;;1.20;0.40;;;;;;;22.42;38.97;101269.31;5035456;28;20048;-64
2022/02/11 11:34:21;;;;;;;0.63;0.30;;;;;;;22.47;39.12;101275.06;5035710;28;20105;-64
2022/02/11 11:36:49;;;;;;;1.15;0.28;;;;;;;22.45;38.44;101274.41;5035285;28;20053;-65
2022/02/11 11:39:16;;;;;;;0.77;0.10;;;;;;;22.51;38.31;101273.66;5034889;28;20483;-65
2022/02/11 11:41:42;;;;;;;1.40;0.20;;;;;;;22.47;38.49;101274.22;5034985;28;20045;-65
2022/02/11 11:44:27;;;;;;;0.22;0.10;;;;;;;22.52;37.82;101286.31;5034875;28;20128;-65
2022/02/11 11:46:59;;;;;;;0.70;0.38;;;;;;;22.53;37.92;101284.44;5035308;28;20040;-65
2022/02/11 11:49:26;;;;;;;0.65;0.10;;;;;;;22.49;38.42;101280.34;5034598;28;20024;-64
2022/02/11 11:51:52;;;;;;;0.73;0.10;;;;;;;22.52;38.17;101285.47;5034975;28;20035;-64
2022/02/11 11:54:17;;;;;;;1.30;0.20;;;;;;;22.46;38.47;101300.75;5035365;28;20041;-65
2022/02/11 11:57:04;;;;;;;1.00;0.28;;;;;;;22.46;37.55;101295.28;5033940;28;20059;-65
2022/02/11 11:59:37;;;;;;;1.40;0.20;;;;;;;22.51;37.95;101290.09;5035967;28;20104;-64
2022/02/11 12:02:26;;;;;;;0.73;0.10;;;;;;;22.42;38.84;101287.63;5035226;28;20029;-64
2022/02/11 12:04:59;;;;;;;0.38;0.08;;;;;;;22.48;37.61;101284.97;5034777;28;20084;-64
2022/02/11 12:07:35;;;;;;;0.55;0.20;;;;;;;22.41;38.63;101286.78;5035287;28;20702;-65
2022/02/11 12:10:06;;;;;;;0.52;0.20;;;;;;;22.45;38.05;101301.81;5033400;28;20029;-63
2022/02/11 12:12:33;;;;;;;0.38;0.15;;;;;;;22.47;38.65;101307.09;5033533;28;20029;-64
2022/02/11 12:15:02;;;;;;;0.60;0.10;;;;;;;22.40;37.88;101304.25;5031529;28;20086;-64
2022/02/11 12:17:28;;;;;;;0.25;0.20;;;;;;;22.43;37.97;101314.00;5031117;28;20029;-65
2022/02/11 12:19:55;;;;;;;0.93;0.20;;;;;;;22.49;37.51;101314.06;5031352;28;20101;-65
2022/02/11 12:22:23;;;;;;;1.27;0.10;;;;;;;22.54;37.52;101307.22;5030357;28;20473;-64
2022/02/11 12:27:39;;;;;;;0.95;0.20;;;;;;;22.51;38.45;101312.03;5027346;28;20431;-64
2022/02/11 12:30:10;;;;;;;2.83;0.10;;;;;;;22.49;38.47;101313.22;5014955;28;20022;-65
2022/02/11 12:32:43;;;;;;;2.35;0.38;;;;;;;22.41;38.65;101314.19;5020821;28;20384;-65
2022/02/11 12:35:10;;;;;;;0.70;0.50;;;;;;;22.50;37.88;101315.78;5028098;28;20021;-65
2022/02/11 12:37:37;;;;;;;1.08;0.20;;;;;;;22.51;38.21;101317.50;5028819;28;20384;-64
2022/02/11 12:40:12;;;;;;;1.60;0.38;;;;;;;22.54;37.91;101326.38;5032234;28;20018;-65
2022/02/11 12:42:44;;;;;;;0.75;0.10;;;;;;;22.57;37.32;101324.13;5032889;28;20029;-64
2022/02/11 12:45:21;;;;;;;0.32;0.00;;;;;;;22.61;36.71;101333.66;5034249;28;20044;-67
2022/02/11 12:47:46;;;;;;;0.45;0.10;;;;;;;22.56;35.72;101336.13;5031429;28;20029;-69
2022/02/11 12:50:12;;;;;;;0.55;0.10;;;;;;;22.55;36.05;101341.78;5033226;28;20036;-70
2022/02/11 12:52:38;;;;;;;0.20;0.10;;;;;;;22.51;35.20;101344.91;5034190;28;20113;-69
2022/02/11 12:55:11;;;;;;;1.08;0.20;;;;;;;22.55;35.31;101355.50;5030372;28;20068;-70
2022/02/11 12:57:42;;;;;;;1.52;0.10;;;;;;;22.52;35.32;101357.56;5047957;28;20473;-68
2022/02/11 13:00:14;;;;;;;0.30;0.10;;;;;;;22.50;35.31;101365.09;5032784;28;20041;-63
2022/02/11 13:02:40;;;;;;;1.02;0.10;;;;;;;22.51;35.67;101360.50;5032212;28;20048;-65
2022/02/11 13:05:13;;;;;;;1.15;0.10;;;;;;;22.57;35.28;101361.63;5033931;28;20408;-68
2022/02/11 13:07:41;;;;;;;0.25;0.25;;;;;;;22.52;35.97;101373.16;5028565;28;20311;-67
2022/02/11 13:10:09;;;;;;;0.50;0.10;;;;;;;22.55;35.66;101378.25;5028255;28;20037;-68
2022/02/11 13:12:39;;;;;;;1.27;0.10;;;;;;;22.59;35.48;101378.72;5027640;28;20484;-68
2022/02/11 13:15:07;;;;;;;0.60;0.10;;;;;;;22.56;34.91;101371.75;5029015;28;20460;-68
2022/02/11 13:17:32;;;;;;;0.17;0.10;;;;;;;22.59;35.09;101373.25;5032729;28;20039;-69
2022/02/11 13:20:09;;;;;;;0.63;0.20;;;;;;;22.57;35.06;101370.69;5037344;28;20025;-68
2022/02/11 13:22:34;;;;;;;0.43;0.10;;;;;;;22.54;35.49;101381.19;5050211;28;20036;-68
2022/02/11 13:25:00;;;;;;;1.85;0.10;;;;;;;22.53;34.86;101380.34;5053536;28;20104;-69
2022/02/11 13:27:44;;;;;;;0.50;0.13;;;;;;;22.55;36.06;101383.75;5053323;28;20024;-69
2022/02/11 13:30:12;;;;;;;0.20;0.10;;;;;;;22.60;34.71;101389.50;5053649;28;20017;-69
2022/02/11 13:32:37;;;;;;;0.20;0.00;;;;;;;22.59;35.99;101384.22;5053236;28;20055;-69
2022/02/11 13:35:05;;;;;;;1.00;0.75;;;;;;;22.60;35.03;101385.91;5053503;28;20407;-69
2022/02/11 13:37:45;;;;;;;1.60;0.20;;;;;;;22.52;35.58;101390.44;5053094;28;20069;-69
2022/02/11 13:40:14;;;;;;;0.40;0.13;;;;;;;22.54;34.83;101393.00;5026989;28;20550;-68
2022/02/11 13:42:40;;;;;;;1.17;0.10;;;;;;;22.58;34.70;101385.25;5033106;28;20029;-69
2022/02/11 13:45:07;;;;;;;0.13;0.08;;;;;;;22.52;35.65;101400.56;5031294;28;20024;-69
2022/02/11 13:47:33;;;;;;;0.52;0.40;;;;;;;22.59;35.33;101396.03;5033197;28;20143;-68
2022/02/11 13:50:03;;;;;;;0.22;0.20;;;;;;;22.52;35.59;101404.16;5032386;28;20489;-70
2022/02/11 13:55:13;;;;;;;0.10;0.10;;;;;;;22.46;34.94;101407.59;5033239;28;20045;-69
2022/02/11 13:57:38;;;;;;;0.28;0.05;;;;;;;22.46;35.75;101413.09;5031375;28;20025;-67
2022/02/11 14:00:36;;;;;;;1.30;0.20;;;;;;;22.62;35.60;101417.56;5033108;28;20484;-68
2022/02/11 14:03:02;;;;;;;0.00;0.00;;;;;;;22.50;35.41;101417.16;5031980;28;20028;-68
2022/02/11 14:05:29;;;;;;;2.38;0.45;;;;;;;22.52;35.44;101417.84;5046108;28;20029;-68
2022/02/11 14:07:55;;;;;;;0.08;0.00;;;;;;;22.64;34.36;101420.13;5037301;28;20021;-70
2022/02/11 14:10:22;;;;;;;0.15;0.15;;;;;;;22.50;35.17;101428.13;5032868;28;20388;-68
2022/02/11 14:12:48;;;;;;;0.52;0.10;;;;;;;22.56;34.85;101434.75;5025395;28;20473;-68
2022/02/11 14:15:16;;;;;;;0.63;0.10;;;;;;;22.59;34.38;101434.38;5023077;28;20026;-66
2022/02/11 14:17:43;;;;;;;0.65;0.10;;;;;;;22.63;34.62;101441.19;5026217;28;20025;-69
2022/02/11 14:20:09;;;;;;;1.23;0.22;;;;;;;22.56;34.99;101445.72;5032806;28;20423;-69
2022/02/11 14:22:36;;;;;;;0.60;0.28;;;;;;;22.51;36.01;101449.03;5032035;28;20032;-69
2022/02/11 14:25:01;;;;;;;0.80;0.10;;;;;;;22.58;35.17;101456.50;5036836;28;20024;-68
2022/02/11 14:27:27;;;;;;;0.10;0.10;;;;;;;22.59;34.93;101460.94;5032447;28;20043;-68
2022/02/11 14:29:52;;;;;;;0.70;0.22;;;;;;;22.64;35.31;101459.34;5029023;28;20240;-69
2022/02/11 14:32:17;;;;;;;0.40;0.10;;;;;;;22.61;35.59;101458.88;5032146;28;20029;-68
2022/02/11 14:34:43;;;;;;;1.00;0.20;;;;;;;22.60;34.81;101459.91;5030870;28;20352;-67
2022/02/11 14:37:09;;;;;;;0.77;0.10;;;;;;;22.60;35.37;101468.13;5029762;28;20033;-68
2022/02/11 14:39:35;;;;;;;0.68;0.30;;;;;;;22.59;35.27;101482.88;5031865;28;20096;-68
2022/02/11 14:42:02;;;;;;;1.63;0.38;;;;;;;22.56;35.34;101478.63;5032333;28;20208;-68
2022/02/11 14:44:33;;;;;;;0.25;0.08;;;;;;;22.51;35.92;101490.13;5032168;28;20021;-69
2022/02/11 14:47:01;;;;;;;1.17;0.10;;;;;;;22.56;35.81;101494.19;5028012;28;20025;-69
2022/02/11 14:49:27;;;;;;;1.17;0.08;;;;;;;22.57;35.26;101498.66;5030407;28;20425;-68
2022/02/11 14:52:02;;;;;;;0.30;0.10;;;;;;;22.59;35.91;101504.78;5034873;28;20201;-69
2022/02/11 14:54:30;;;;;;;0.30;0.10;;;;;;;22.55;35.55;101508.94;5035217;28;20065;-68
2022/02/11 14:56:56;;;;;;;0.20;0.10;;;;;;;22.63;35.49;101517.09;5034415;28;20038;-68
2022/02/11 14:59:22;;;;;;;0.68;0.25;;;;;;;22.47;35.71;101518.91;5036388;28;20029;-68
2022/02/11 15:01:48;;;;;;;1.55;0.13;;;;;;;22.51;35.99;101520.28;5035266;28;20501;-69
2022/02/11 15:04:17;;;;;;;0.65;0.10;;;;;;;22.51;35.14;101528.50;5034475;28;20030;-68
2022/02/11 15:06:46;;;;;;;0.45;0.40;;;;;;;22.46;35.38;101530.91;5033786;28;20112;-69
2022/02/11 15:09:11;;;;;;;0.60;0.10;;;;;;;22.54;35.42;101529.16;5034867;28;20156;-68